Terminal Aerodrome Forecast
Issued by NWS Mt. Holly, NJ

Home | Current Version | Previous Version | Text Only | Print | Product List | Glossary On
Versions: 1 2 3 4 5 6 7 8 9 10 11 12 13 14
000
FTUS41 KPHI 202300
TAFTTN
TAF
KTTN 202335Z 2100/2124 VRB03KT P6SM OVC100
     FM210800 VRB03KT P6SM SCT040 OVC080
     FM211500 22005KT P6SM BKN040
     FM211900 00000KT P6SM OVC100=

USA.gov is the U.S. government's official web portal to all federal, state and local government web resources and services.